Time;durP1;ratioP1;P1;durP2;ratioP2;P2;SDS_P1;SDS_P2;PMS_P1;PMS_P2;Temp;Humidity;BMP_temperature;BMP_pressure;BME280_temperature;BME280_humidity;BME280_pressure;Samples;Min_cycle;Max_cycle;Signal;HPM_P1;HPM_P2
2022/11/21 00:00:15;;;;;;;121.05;65.78;;;;;;;-5.21;100.00;98799.81;5074013;28;20460;-78
2022/11/21 00:02:40;;;;;;;132.93;71.60;;;;;;;-5.14;100.00;98809.13;5074068;28;20048;-78
2022/11/21 00:05:06;;;;;;;110.15;61.30;;;;;;;-5.15;100.00;98804.88;5074302;28;20128;-78
2022/11/21 00:07:31;;;;;;;107.20;57.00;;;;;;;-5.19;100.00;98798.94;5073899;28;20104;-78
2022/11/21 00:09:56;;;;;;;101.30;53.40;;;;;;;-5.19;100.00;98798.94;5073002;28;20025;-78
2022/11/21 00:12:22;;;;;;;94.90;50.92;;;;;;;-5.22;100.00;98798.97;5074063;28;20012;-78
2022/11/21 00:14:47;;;;;;;92.05;52.15;;;;;;;-5.24;100.00;98798.09;5073876;28;20119;-78
2022/11/21 00:17:12;;;;;;;94.47;52.33;;;;;;;-5.20;100.00;98806.56;5073495;28;20096;-78
2022/11/21 00:19:38;;;;;;;87.85;49.03;;;;;;;-5.25;100.00;98813.34;5073753;28;20048;-78
2022/11/21 00:22:03;;;;;;;86.18;47.15;;;;;;;-5.26;100.00;98804.88;5074186;28;20063;-78
2022/11/21 00:24:28;;;;;;;96.05;49.92;;;;;;;-5.23;100.00;98811.63;5073624;28;20035;-78
2022/11/21 00:26:53;;;;;;;82.10;47.58;;;;;;;-5.23;100.00;98809.09;5073781;28;20052;-78
2022/11/21 00:29:19;;;;;;;92.60;46.70;;;;;;;-5.39;100.00;98782.84;5073471;28;20027;-78
2022/11/21 00:31:45;;;;;;;84.35;45.88;;;;;;;-5.27;100.00;98798.97;5073447;28;20025;-78
2022/11/21 00:34:10;;;;;;;84.47;45.67;;;;;;;-5.31;100.00;98796.38;5073627;28;20098;-78
2022/11/21 00:36:35;;;;;;;90.65;48.78;;;;;;;-5.33;100.00;98785.38;5073443;28;20024;-78
2022/11/21 00:39:01;;;;;;;87.00;46.30;;;;;;;-5.28;100.00;98783.69;5073554;28;20020;-78
2022/11/21 00:41:26;;;;;;;89.13;46.35;;;;;;;-5.31;100.00;98781.16;5072982;28;20023;-78
2022/11/21 00:43:51;;;;;;;90.78;50.60;;;;;;;-5.37;100.00;98771.84;5073501;28;20036;-78
2022/11/21 00:46:16;;;;;;;87.15;47.08;;;;;;;-5.27;100.00;98783.72;5072849;28;20032;-78
2022/11/21 00:48:42;;;;;;;84.05;47.05;;;;;;;-5.29;100.00;98789.63;5073477;28;20017;-78
2022/11/21 00:51:07;;;;;;;88.43;47.20;;;;;;;-5.27;100.00;98800.63;5073068;28;20020;-78
2022/11/21 00:53:33;;;;;;;86.97;46.00;;;;;;;-5.25;100.00;98801.50;5072859;28;20093;-78
2022/11/21 00:55:58;;;;;;;96.38;48.58;;;;;;;-5.27;100.00;98787.94;5073145;28;20039;-78
2022/11/21 00:58:24;;;;;;;90.25;47.45;;;;;;;-5.21;100.00;98798.13;5072683;28;20021;-78
2022/11/21 01:00:49;;;;;;;88.25;46.70;;;;;;;-5.22;100.00;98798.13;5072945;28;20363;-78
2022/11/21 01:03:15;;;;;;;105.43;51.30;;;;;;;-5.13;100.00;98785.44;5072954;28;20030;-78
2022/11/21 01:05:40;;;;;;;85.57;46.10;;;;;;;-5.02;100.00;98782.06;5073031;28;20406;-78
2022/11/21 01:08:05;;;;;;;92.03;48.80;;;;;;;-4.93;100.00;98768.56;5072773;28;20103;-78
2022/11/21 01:10:31;;;;;;;83.63;46.75;;;;;;;-4.81;100.00;98758.38;5072654;28;20044;-78
2022/11/21 01:12:56;;;;;;;88.00;47.38;;;;;;;-4.57;100.00;98761.78;5072629;28;20017;-78
2022/11/21 01:15:21;;;;;;;85.50;46.97;;;;;;;-4.45;100.00;98754.16;5072512;28;20021;-78
2022/11/21 01:17:47;;;;;;;78.15;43.30;;;;;;;-4.35;100.00;98732.97;5072540;28;20375;-78
2022/11/21 01:20:13;;;;;;;86.88;45.25;;;;;;;-4.18;100.00;98735.47;5072513;28;20019;-78
2022/11/21 01:22:39;;;;;;;79.60;43.35;;;;;;;-4.04;100.00;98731.22;5072353;28;20494;-78
2022/11/21 01:25:04;;;;;;;79.03;43.00;;;;;;;-3.93;100.00;98731.16;5072422;28;20040;-78
2022/11/21 01:27:30;;;;;;;77.07;42.67;;;;;;;-3.86;100.00;98721.81;5072269;28;20031;-78
2022/11/21 01:29:55;;;;;;;81.72;44.42;;;;;;;-3.76;100.00;98720.91;5072329;28;20025;-78
2022/11/21 01:32:20;;;;;;;80.20;45.17;;;;;;;-3.61;100.00;98725.13;5072227;28;20020;-78
2022/11/21 01:34:46;;;;;;;81.13;43.97;;;;;;;-3.55;100.00;98720.81;5072434;28;20047;-78
2022/11/21 01:37:11;;;;;;;84.25;46.78;;;;;;;-3.54;100.00;98701.31;5072268;28;20016;-78
2022/11/21 01:39:36;;;;;;;81.18;44.83;;;;;;;-3.47;100.00;98702.13;5072491;28;20100;-78
2022/11/21 01:42:02;;;;;;;80.30;43.22;;;;;;;-3.34;100.00;98711.38;5072305;28;20021;-78
2022/11/21 01:44:49;;;;;;;90.68;48.58;;;;;;;-3.35;100.00;98694.41;5072078;28;20102;-78
2022/11/21 01:47:14;;;;;;;83.10;44.78;;;;;;;-3.19;100.00;98715.56;5072440;28;20025;-78
2022/11/21 01:49:42;;;;;;;82.18;44.80;;;;;;;-3.15;100.00;98710.44;5071926;28;20116;-78
2022/11/21 01:52:07;;;;;;;80.07;46.47;;;;;;;-3.07;100.00;98710.38;5072361;28;20024;-78
2022/11/21 01:54:38;;;;;;;84.25;43.70;;;;;;;-3.01;100.00;98708.63;5071967;28;20021;-78
2022/11/21 01:57:12;;;;;;;81.28;44.28;;;;;;;-2.98;100.00;98700.13;5071956;28;20012;-78
2022/11/21 02:00:09;;;;;;;75.70;41.88;;;;;;;-2.89;100.00;98706.84;5072019;28;20085;-78
2022/11/21 02:02:37;;;;;;;76.10;41.17;;;;;;;-2.86;100.00;98702.56;4970721;28;20031;-78
2022/11/21 02:05:06;;;;;;;75.47;42.83;;;;;;;-2.87;100.00;98697.47;4970969;28;20090;-78
2022/11/21 02:07:34;;;;;;;74.03;40.28;;;;;;;-2.81;100.00;98699.97;4970609;28;20450;-78
2022/11/21 02:10:01;;;;;;;80.00;43.30;;;;;;;-2.74;100.00;98698.22;4970962;28;20145;-78
2022/11/21 02:12:36;;;;;;;69.15;37.83;;;;;;;-2.78;100.00;98690.63;4970626;28;20129;-78
2022/11/21 02:15:02;;;;;;;77.07;40.97;;;;;;;-2.73;100.00;98682.94;4970881;28;20110;-78
2022/11/21 02:17:31;;;;;;;69.95;37.40;;;;;;;-2.71;100.00;98685.44;4970594;28;20163;-78
2022/11/21 02:19:59;;;;;;;74.88;42.05;;;;;;;-2.63;100.00;98689.63;4970641;28;20070;-78
2022/11/21 02:22:31;;;;;;;75.00;39.13;;;;;;;-2.60;100.00;98693.84;4970557;28;20023;-78
2022/11/21 02:25:00;;;;;;;72.13;40.17;;;;;;;-2.59;100.00;98687.91;4970686;28;20030;-78
2022/11/21 02:27:26;;;;;;;75.88;40.97;;;;;;;-2.55;100.00;98671.72;4970518;28;20482;-78
2022/11/21 02:29:51;;;;;;;69.78;39.67;;;;;;;-2.61;100.00;98649.69;4970856;28;20126;-78
2022/11/21 02:32:22;;;;;;;76.53;41.03;;;;;;;-2.57;100.00;98650.47;4970998;28;20154;-78
2022/11/21 02:34:47;;;;;;;69.40;39.92;;;;;;;-2.54;100.00;98647.91;4992736;28;20521;-78
2022/11/21 02:37:13;;;;;;;73.90;38.72;;;;;;;-2.48;100.00;98644.47;5013674;28;20041;-78
2022/11/21 02:39:39;;;;;;;74.18;42.55;;;;;;;-2.44;100.00;98639.31;5079036;28;20036;-78
2022/11/21 02:42:13;;;;;;;72.38;39.08;;;;;;;-2.43;100.00;98635.06;5095882;28;20024;-78
2022/11/21 02:44:51;;;;;;;69.18;39.25;;;;;;;-2.37;100.00;98630.72;5095532;28;20114;-78
2022/11/21 02:47:17;;;;;;;79.88;43.97;;;;;;;-2.37;100.00;98624.78;5095846;28;20088;-78
2022/11/21 02:49:55;;;;;;;68.93;36.72;;;;;;;-2.38;100.00;98605.25;5095769;28;20043;-78
2022/11/21 02:52:21;;;;;;;75.10;40.60;;;;;;;-2.29;100.00;98620.44;5095920;28;20051;-78
2022/11/21 02:54:46;;;;;;;68.97;37.40;;;;;;;-2.28;100.00;98604.25;5095792;28;20422;-78
2022/11/21 02:57:11;;;;;;;70.47;39.13;;;;;;;-2.29;100.00;98600.03;5095599;28;20016;-78
2022/11/21 02:59:37;;;;;;;73.63;40.10;;;;;;;-2.27;100.00;98600.88;5095419;28;20036;-78
2022/11/21 03:02:02;;;;;;;65.32;37.13;;;;;;;-2.26;100.00;98589.81;5094670;28;20057;-78
2022/11/21 03:04:27;;;;;;;72.95;38.63;;;;;;;-2.22;100.00;98591.44;5095484;28;20378;-78
2022/11/21 03:06:53;;;;;;;67.75;39.47;;;;;;;-2.14;100.00;98599.84;5095627;28;20020;-78
2022/11/21 03:09:19;;;;;;;74.18;40.20;;;;;;;-2.12;100.00;98592.16;5095530;28;20028;-78
2022/11/21 03:11:44;;;;;;;68.15;38.67;;;;;;;-2.10;100.00;98586.19;5095196;28;20031;-78
2022/11/21 03:14:09;;;;;;;65.43;34.92;;;;;;;-2.05;100.00;98581.03;5095273;28;20371;-78
2022/11/21 03:16:35;;;;;;;62.05;35.88;;;;;;;-2.03;100.00;98580.13;5095202;28;20024;-78
2022/11/21 03:19:00;;;;;;;66.20;35.88;;;;;;;-2.04;100.00;98570.78;5095739;28;20468;-78
2022/11/21 03:21:25;;;;;;;62.70;34.28;;;;;;;-2.05;100.00;98568.28;5095093;28;20455;-78
2022/11/21 03:23:51;;;;;;;67.45;37.75;;;;;;;-2.04;100.00;98554.66;5095488;28;20169;-78
2022/11/21 03:26:16;;;;;;;63.95;35.40;;;;;;;-1.98;100.00;98559.69;5095170;28;20051;-78
2022/11/21 03:28:41;;;;;;;62.50;33.40;;;;;;;-1.99;100.00;98555.44;5094810;28;20058;-78
2022/11/21 03:31:07;;;;;;;68.63;38.22;;;;;;;-1.97;100.00;98551.16;5081652;28;20020;-78
2022/11/21 03:33:32;;;;;;;55.33;32.35;;;;;;;-1.93;100.00;98551.97;5074754;28;20024;-78
2022/11/21 03:35:58;;;;;;;62.08;34.45;;;;;;;-1.90;100.00;98557.84;5055644;28;20041;-78
2022/11/21 03:38:23;;;;;;;57.25;33.42;;;;;;;-1.83;100.00;98556.91;5054420;28;20483;-78
2022/11/21 03:40:48;;;;;;;55.80;33.75;;;;;;;-1.87;100.00;98541.66;5054395;28;20024;-78
2022/11/21 03:43:14;;;;;;;55.40;32.90;;;;;;;-1.78;100.00;98551.72;5054374;28;20063;-78
2022/11/21 03:45:39;;;;;;;58.85;33.70;;;;;;;-1.82;100.00;98527.13;5054248;28;20043;-78
2022/11/21 03:48:05;;;;;;;58.00;33.85;;;;;;;-1.79;100.00;98530.47;5054916;28;20659;-78
2022/11/21 03:50:30;;;;;;;53.75;30.73;;;;;;;-1.74;100.00;98530.41;5054105;28;20025;-78
2022/11/21 03:52:55;;;;;;;58.70;34.55;;;;;;;-1.66;100.00;98540.50;5054711;28;20019;-78
2022/11/21 03:55:21;;;;;;;56.47;31.38;;;;;;;-1.72;100.00;98527.84;5054426;28;20036;-78
2022/11/21 03:57:46;;;;;;;55.05;30.80;;;;;;;-1.66;100.00;98530.28;5053887;28;20112;-78
2022/11/21 04:00:12;;;;;;;57.90;32.47;;;;;;;-1.63;100.00;98525.97;5054133;28;20368;-78
2022/11/21 04:02:37;;;;;;;47.15;27.42;;;;;;;-1.60;100.00;98517.41;5054308;28;20017;-78
2022/11/21 04:05:03;;;;;;;53.80;31.95;;;;;;;-1.63;100.00;98508.09;5054319;28;20021;-78
2022/11/21 04:07:28;;;;;;;57.13;31.67;;;;;;;-1.61;100.00;98501.25;5035931;28;20350;-78
2022/11/21 04:09:54;;;;;;;50.05;28.70;;;;;;;-1.55;100.00;98508.84;5053996;28;20025;-78
2022/11/21 04:12:19;;;;;;;59.08;33.55;;;;;;;-1.53;100.00;98503.69;5054026;28;20103;-78
2022/11/21 04:14:44;;;;;;;49.20;29.00;;;;;;;-1.56;100.00;98491.84;5053996;28;20402;-78
2022/11/21 04:17:10;;;;;;;49.35;29.00;;;;;;;-1.52;100.00;98485.81;5036181;28;20028;-78
2022/11/21 04:19:35;;;;;;;52.10;29.35;;;;;;;-1.45;100.00;98489.09;5053788;28;20025;-78
2022/11/21 04:22:00;;;;;;;49.63;31.02;;;;;;;-1.51;100.00;98476.44;5053884;28;20037;-78
2022/11/21 04:24:26;;;;;;;56.80;31.42;;;;;;;-1.54;100.00;98463.72;5053483;28;20025;-78
2022/11/21 04:26:54;;;;;;;56.20;31.65;;;;;;;-1.53;100.00;98473.03;5053415;28;20021;-78
2022/11/21 04:29:19;;;;;;;60.05;33.30;;;;;;;-1.53;100.00;98463.66;5053469;28;20028;-78
2022/11/21 04:31:44;;;;;;;61.15;35.47;;;;;;;-1.49;100.00;98453.41;5053568;28;20017;-78
2022/11/21 04:34:10;;;;;;;54.83;33.20;;;;;;;-1.49;100.00;98449.16;5053689;28;20450;-78
2022/11/21 04:36:35;;;;;;;64.18;36.22;;;;;;;-1.49;100.00;98456.81;5053324;28;20476;-78
2022/11/21 04:39:00;;;;;;;71.43;38.33;;;;;;;-1.44;100.00;98461.84;5053518;28;20029;-78
2022/11/21 04:41:26;;;;;;;82.65;47.03;;;;;;;-1.52;100.00;98451.75;5053642;28;20036;-78
2022/11/21 04:43:52;;;;;;;65.68;38.38;;;;;;;-1.47;100.00;98456.81;5052955;28;20055;-78
2022/11/21 04:46:17;;;;;;;63.30;35.95;;;;;;;-1.43;100.00;98453.28;5053382;28;20021;-78
2022/11/21 04:48:42;;;;;;;62.78;36.88;;;;;;;-1.47;100.00;98444.03;5053163;28;20104;-78
2022/11/21 04:51:08;;;;;;;67.75;38.72;;;;;;;-1.40;100.00;98448.97;5053103;28;20032;-78
2022/11/21 04:53:33;;;;;;;65.20;36.47;;;;;;;-1.38;100.00;98442.16;5053019;28;20021;-78
2022/11/21 04:56:03;;;;;;;64.05;36.90;;;;;;;-1.41;100.00;98420.94;5052557;28;20024;-78
2022/11/21 04:58:28;;;;;;;60.78;35.45;;;;;;;-1.43;100.00;98420.09;5052788;28;20029;-78
2022/11/21 05:00:53;;;;;;;65.22;36.25;;;;;;;-1.42;100.00;98421.81;5052962;28;20453;-78
2022/11/21 05:03:19;;;;;;;71.15;38.08;;;;;;;-1.42;100.00;98420.09;5052892;28;20029;-78
2022/11/21 05:05:45;;;;;;;67.07;38.75;;;;;;;-1.41;100.00;98408.16;5052622;28;20025;-78
2022/11/21 05:08:10;;;;;;;63.70;36.53;;;;;;;-1.39;100.00;98408.94;5052964;28;20036;-78
2022/11/21 05:13:19;;;;;;;63.58;36.40;;;;;;;-1.39;100.00;98396.19;5052616;28;20028;-78
2022/11/21 05:13:21;;;;;;;54.80;32.17;;;;;;;-1.28;100.00;98415.56;5052639;28;20122;-78
2022/11/21 05:15:50;;;;;;;59.78;36.20;;;;;;;-1.29;100.00;98415.59;5052526;28;20071;-78
2022/11/21 05:18:15;;;;;;;54.85;33.40;;;;;;;-1.27;100.00;98403.63;5052656;28;20425;-78
2022/11/21 05:20:41;;;;;;;54.42;32.47;;;;;;;-1.35;100.00;98398.69;5052498;28;20025;-78
2022/11/21 05:23:06;;;;;;;59.42;33.30;;;;;;;-1.22;100.00;98393.31;5052750;28;20151;-78
2022/11/21 05:25:32;;;;;;;56.92;32.75;;;;;;;-1.26;100.00;98390.84;5052284;28;20049;-78
2022/11/21 05:27:57;;;;;;;62.38;36.55;;;;;;;-1.20;100.00;98396.69;5052703;28;20040;-78
2022/11/21 05:30:22;;;;;;;65.03;35.72;;;;;;;-1.21;100.00;98397.56;5052445;28;20456;-78
2022/11/21 05:32:47;;;;;;;57.95;33.90;;;;;;;-1.23;100.00;98387.38;5052635;28;20017;-78
2022/11/21 05:35:13;;;;;;;59.03;33.63;;;;;;;-1.27;100.00;98372.97;5052308;28;20044;-78
2022/11/21 05:37:38;;;;;;;59.45;34.67;;;;;;;-1.20;100.00;98391.59;5052124;28;20021;-78
2022/11/21 05:40:04;;;;;;;54.55;31.45;;;;;;;-1.22;100.00;98383.09;5052246;28;20031;-78
2022/11/21 05:45:13;;;;;;;58.38;33.97;;;;;;;-1.22;100.00;98371.19;5052574;28;20055;-78
2022/11/21 05:47:40;;;;;;;63.78;36.55;;;;;;;-1.24;100.00;98375.47;5052414;28;20464;-78
2022/11/21 05:50:06;;;;;;;59.42;33.25;;;;;;;-1.25;100.00;98368.69;5052309;28;20036;-78
2022/11/21 05:52:31;;;;;;;52.10;31.17;;;;;;;-1.23;100.00;98368.66;5052162;28;20463;-78
2022/11/21 05:54:56;;;;;;;55.95;31.85;;;;;;;-1.23;100.00;98371.19;5051838;28;20021;-78
2022/11/21 05:57:22;;;;;;;57.53;32.38;;;;;;;-1.21;100.00;98370.31;5052353;28;20017;-78
2022/11/21 05:59:47;;;;;;;64.57;34.80;;;;;;;-1.17;100.00;98363.44;5051705;28;20032;-78
2022/11/21 06:04:56;;;;;;;61.15;34.20;;;;;;;-1.17;100.00;98356.59;5052112;28;20052;-78
2022/11/21 06:07:22;;;;;;;56.08;33.85;;;;;;;-1.12;100.00;98362.44;5051262;28;20021;-78
2022/11/21 06:09:47;;;;;;;58.30;33.85;;;;;;;-1.16;100.00;98348.06;5051669;28;20070;-78
2022/11/21 06:12:12;;;;;;;58.63;33.20;;;;;;;-1.19;100.00;98335.34;5052046;28;20453;-78
2022/11/21 06:14:38;;;;;;;54.45;30.00;;;;;;;-1.11;100.00;98348.78;5051696;28;20380;-78
2022/11/21 06:17:03;;;;;;;59.53;34.17;;;;;;;-0.99;100.00;98354.53;5052049;28;20452;-78
2022/11/21 06:19:28;;;;;;;61.00;31.15;;;;;;;-0.96;100.00;98350.22;5051837;28;20028;-78
2022/11/21 06:21:54;;;;;;;53.60;30.50;;;;;;;-1.01;100.00;98336.69;5051752;28;20053;-78
2022/11/21 06:24:19;;;;;;;52.10;30.38;;;;;;;-1.02;100.00;98329.88;5051752;28;20485;-78
2022/11/21 06:26:44;;;;;;;57.97;31.92;;;;;;;-1.01;100.00;98339.25;5051652;28;20492;-78
2022/11/21 06:29:10;;;;;;;50.97;31.08;;;;;;;-1.13;100.00;98334.41;5052027;28;20032;-78
2022/11/21 06:31:36;;;;;;;53.17;30.55;;;;;;;-1.14;100.00;98333.53;5051322;28;20471;-82
2022/11/21 06:34:01;;;;;;;53.15;30.02;;;;;;;-1.19;100.00;98337.06;5051463;28;20041;-83
2022/11/21 06:36:26;;;;;;;54.63;29.77;;;;;;;-1.21;100.00;98336.25;5051461;28;20482;-83
2022/11/21 06:38:54;;;;;;;56.47;32.40;;;;;;;-1.18;100.00;98336.19;5051837;28;20079;-82
2022/11/21 06:41:21;;;;;;;58.10;33.45;;;;;;;-1.22;100.00;98337.97;5033547;28;20040;-83
2022/11/21 06:43:47;;;;;;;54.28;31.95;;;;;;;-1.21;100.00;98336.25;5033300;28;20108;-83
2022/11/21 06:46:13;;;;;;;55.67;32.35;;;;;;;-1.21;100.00;98334.53;5051383;28;20100;-83
2022/11/21 06:48:40;;;;;;;63.58;33.03;;;;;;;-1.15;100.00;98343.78;5050986;28;20033;-83
2022/11/21 06:51:16;;;;;;;56.28;32.90;;;;;;;-1.13;100.00;98334.41;5033371;28;20257;-82
2022/11/21 06:53:41;;;;;;;57.15;32.50;;;;;;;-1.10;100.00;98335.16;5051099;28;20545;-89
2022/11/21 06:56:07;;;;;;;58.70;32.83;;;;;;;-1.09;100.00;98338.56;5033677;28;20032;-89
2022/11/21 06:58:32;;;;;;;66.22;38.00;;;;;;;-1.05;100.00;98330.81;5033575;28;20021;-90
2022/11/21 07:01:06;;;;;;;61.78;33.17;;;;;;;-0.95;100.00;98328.03;5033168;28;20031;-89
2022/11/21 07:03:32;;;;;;;64.65;32.83;;;;;;;-0.94;100.00;98327.16;5051228;28;20115;-90
2022/11/21 07:06:00;;;;;;;53.70;31.13;;;;;;;-0.95;100.00;98341.66;5033356;28;20067;-89
2022/11/21 07:08:26;;;;;;;56.08;33.88;;;;;;;-0.93;100.00;98336.50;5051413;28;20500;-89
2022/11/21 07:10:52;;;;;;;58.30;34.60;;;;;;;-0.95;100.00;98323.78;5033170;28;20028;-89
2022/11/21 07:13:20;;;;;;;61.40;34.50;;;;;;;-0.88;100.00;98340.66;5033517;28;20025;-89
2022/11/21 07:15:47;;;;;;;65.50;37.47;;;;;;;-1.08;100.00;98307.84;5033036;28;20028;-89
2022/11/21 07:18:12;;;;;;;64.97;38.70;;;;;;;-0.81;100.00;98334.53;5051543;28;20029;-89
2022/11/21 07:20:39;;;;;;;57.67;34.78;;;;;;;-0.79;100.00;98345.56;5036951;28;20025;-89
2022/11/21 07:23:05;;;;;;;61.90;36.75;;;;;;;-0.91;100.00;98317.72;5037124;28;20080;-89
2022/11/21 07:25:30;;;;;;;121.25;75.35;;;;;;;-0.77;100.00;98336.13;5037004;28;20067;-90
2022/11/21 07:28:01;;;;;;;81.57;49.33;;;;;;;-0.69;100.00;98340.25;5036934;28;20451;-90
2022/11/21 07:30:28;;;;;;;71.85;39.35;;;;;;;-0.73;100.00;98342.03;5036721;28;20017;-90
2022/11/21 07:32:57;;;;;;;59.65;34.92;;;;;;;-0.83;100.00;98330.34;5036779;28;20673;-90
2022/11/21 07:35:23;;;;;;;87.18;48.83;;;;;;;-0.66;100.00;98346.16;5061957;28;20052;-90
2022/11/21 07:37:49;;;;;;;78.95;47.90;;;;;;;-0.61;100.00;98346.88;5073104;28;20020;-90
2022/11/21 07:40:15;;;;;;;68.78;38.67;;;;;;;-0.60;100.00;98345.16;5073406;28;20364;-89
2022/11/21 07:42:40;;;;;;;68.78;44.08;;;;;;;-0.60;100.00;98343.44;5072997;28;20032;-90
2022/11/21 07:45:06;;;;;;;67.20;38.70;;;;;;;-0.58;100.00;98330.63;5073160;28;20028;-90
2022/11/21 07:47:31;;;;;;;92.88;59.17;;;;;;;-0.46;100.00;98334.59;5073076;28;20444;-90
2022/11/21 07:49:56;;;;;;;67.00;36.63;;;;;;;-0.45;100.00;98328.63;5073019;28;20024;-90
2022/11/21 07:52:22;;;;;;;63.85;35.90;;;;;;;-0.41;100.00;98327.69;5073230;28;20024;-90
2022/11/21 07:54:47;;;;;;;98.35;55.13;;;;;;;-0.39;100.00;98333.59;5072793;28;20028;-90
2022/11/21 07:57:12;;;;;;;64.10;36.60;;;;;;;-0.37;100.00;98329.28;5072950;28;20035;-90
2022/11/21 07:59:38;;;;;;;59.35;35.20;;;;;;;-0.29;100.00;98325.66;5072957;28;20032;-89
2022/11/21 08:02:03;;;;;;;61.67;34.70;;;;;;;-0.27;100.00;98333.31;5072800;28;20482;-90
2022/11/21 08:04:29;;;;;;;58.55;35.20;;;;;;;-0.30;100.00;98334.19;5074351;28;20035;-90
2022/11/21 08:06:54;;;;;;;70.45;40.60;;;;;;;-0.24;100.00;98322.16;5072751;28;20523;-89
2022/11/21 08:09:20;;;;;;;56.28;32.80;;;;;;;-0.21;100.00;98332.31;5074030;28;20032;-90
2022/11/21 08:11:45;;;;;;;54.90;33.45;;;;;;;-0.22;100.00;98333.19;5051055;28;20040;-89
2022/11/21 08:14:10;;;;;;;63.67;35.53;;;;;;;-0.22;100.00;98328.91;5034716;28;20103;-90
2022/11/21 08:16:36;;;;;;;64.22;36.78;;;;;;;-0.17;100.00;98337.34;5034585;28;20442;-90
2022/11/21 08:19:01;;;;;;;57.78;32.47;;;;;;;-0.13;100.00;98338.91;5011338;28;20038;-90
2022/11/21 08:21:27;;;;;;;54.35;31.08;;;;;;;-0.13;100.00;98341.47;5011533;28;20026;-90
2022/11/21 08:23:53;;;;;;;62.83;35.95;;;;;;;-0.13;100.00;98325.28;5011278;28;20405;-89
2022/11/21 08:26:19;;;;;;;57.83;32.15;;;;;;;0.00;100.00;98334.34;5011414;28;20030;-89
2022/11/21 08:28:44;;;;;;;54.35;32.30;;;;;;;0.05;100.00;98337.63;5011263;28;20034;-89
2022/11/21 08:31:09;;;;;;;54.50;29.30;;;;;;;-0.01;100.00;98323.25;5010299;28;20034;-90
2022/11/21 08:33:35;;;;;;;49.35;31.35;;;;;;;0.05;100.00;98347.88;5011474;28;20072;-89
2022/11/21 08:36:06;;;;;;;50.58;29.67;;;;;;;0.12;100.00;98336.56;4994550;28;20050;-90
2022/11/21 08:38:32;;;;;;;51.90;32.83;;;;;;;0.16;100.00;98332.22;5011130;28;20030;-90
2022/11/21 08:43:42;;;;;;;47.38;28.00;;;;;;;0.17;100.00;98342.44;5011339;28;20077;-89
2022/11/21 08:46:08;;;;;;;53.50;29.48;;;;;;;0.24;100.00;98343.13;5010961;28;20022;-89
2022/11/21 08:48:33;;;;;;;65.65;39.50;;;;;;;0.28;100.00;98338.75;5011208;28;20477;-90
2022/11/21 08:50:59;;;;;;;47.95;27.95;;;;;;;0.30;100.00;98345.53;5010820;28;20037;-89
2022/11/21 08:53:24;;;;;;;47.13;28.15;;;;;;;0.24;100.00;98341.38;4971896;28;20041;-89
2022/11/21 08:55:50;;;;;;;48.70;29.63;;;;;;;0.28;100.00;98344.72;4976359;28;20070;-89
2022/11/21 08:58:15;;;;;;;53.60;36.03;;;;;;;0.33;100.00;98350.53;4991304;28;20034;-89
2022/11/21 09:00:41;;;;;;;68.30;44.88;;;;;;;0.34;100.00;98352.25;4991468;28;20453;-89
2022/11/21 09:03:06;;;;;;;47.13;28.50;;;;;;;0.31;100.00;98357.44;4991068;28;20580;-90
2022/11/21 09:05:32;;;;;;;46.47;27.88;;;;;;;0.39;100.00;98355.53;4991214;28;20068;-89
2022/11/21 09:07:58;;;;;;;48.58;28.50;;;;;;;0.41;100.00;98342.66;4990880;28;20038;-90
2022/11/21 09:10:24;;;;;;;48.15;28.88;;;;;;;0.30;100.00;98329.31;4975007;28;20022;-89
2022/11/21 09:12:49;;;;;;;59.63;33.65;;;;;;;0.40;100.00;98349.50;4990909;28;20038;-89
2022/11/21 09:18:03;;;;;;;50.10;27.48;;;;;;;0.55;100.00;98366.22;4990877;28;20748;-89
2022/11/21 09:20:33;;;;;;;48.33;27.42;;;;;;;0.50;100.00;98362.91;4974691;28;20026;-89
2022/11/21 09:23:03;;;;;;;48.47;30.02;;;;;;;0.48;100.00;98364.69;4990644;28;20030;-89
2022/11/21 09:25:29;;;;;;;47.53;29.33;;;;;;;0.54;100.00;98369.63;5031541;28;20029;-89
2022/11/21 09:27:58;;;;;;;47.95;29.35;;;;;;;0.61;100.00;98371.16;5034572;28;20028;-89
2022/11/21 09:30:24;;;;;;;57.08;37.75;;;;;;;0.54;100.00;98341.44;5034309;28;20137;-89
2022/11/21 09:32:49;;;;;;;50.80;30.60;;;;;;;0.59;100.00;98356.69;5034401;28;20116;-89
2022/11/21 09:35:14;;;;;;;50.13;30.63;;;;;;;0.59;100.00;98354.13;5057255;28;20048;-89
2022/11/21 09:37:40;;;;;;;41.50;26.35;;;;;;;0.75;100.00;98370.78;5070877;28;20016;-89
2022/11/21 09:40:06;;;;;;;49.80;29.48;;;;;;;0.74;100.00;98356.28;5072265;28;20025;-89
2022/11/21 09:43:05;;;;;;;46.70;29.10;;;;;;;0.73;100.00;98347.75;5070945;28;20375;-89
2022/11/21 09:45:41;;;;;;;55.45;32.88;;;;;;;0.84;100.00;98356.88;5070904;28;20383;-89
2022/11/21 09:48:13;;;;;;;66.35;39.47;;;;;;;0.94;100.00;98342.91;5070587;28;20028;-89
2022/11/21 09:50:43;;;;;;;52.03;31.55;;;;;;;1.06;100.00;98349.44;5072635;28;20032;-89
2022/11/21 09:53:21;;;;;;;64.05;38.90;;;;;;;1.01;100.00;98339.28;5072042;28;20071;-89
2022/11/21 09:55:56;;;;;;;54.22;36.15;;;;;;;1.07;100.00;98348.53;5070851;28;20020;-89
2022/11/21 09:58:40;;;;;;;52.72;30.13;;;;;;;1.07;100.00;98351.09;5070612;28;20050;-89
2022/11/21 10:01:09;;;;;;;48.85;29.00;;;;;;;1.14;100.00;98348.31;5071825;28;20032;-89
2022/11/21 10:03:41;;;;;;;47.70;29.48;;;;;;;1.15;100.00;98346.59;5070580;28;20024;-90
2022/11/21 10:06:18;;;;;;;59.10;31.10;;;;;;;1.12;100.00;98350.06;5069070;28;20070;-89
2022/11/21 10:08:54;;;;;;;48.10;29.27;;;;;;;1.12;100.00;98350.06;5069480;28;20033;-88
2022/11/21 10:12:35;;;;;;;53.35;31.08;;;;;;;1.20;100.00;98358.38;5052638;28;20071;-89
2022/11/21 10:14:46;;;;;;;41.70;27.80;;;;;;;1.20;100.00;98360.09;5069379;28;20059;-89
2022/11/21 10:17:43;;;;;;;54.55;33.97;;;;;;;1.11;100.00;98353.53;5052251;28;20085;-89
2022/11/21 10:20:21;;;;;;;50.90;31.27;;;;;;;1.19;100.00;98361.84;5009680;28;20202;-89
2022/11/21 10:23:08;;;;;;;48.42;31.10;;;;;;;1.20;100.00;98342.16;5009745;28;20425;-89
2022/11/21 10:25:37;;;;;;;49.65;33.83;;;;;;;1.26;100.00;98352.22;4993259;28;20779;-89
2022/11/21 10:28:15;;;;;;;59.95;39.58;;;;;;;1.23;100.00;98352.34;4992965;28;20044;-89
2022/11/21 10:30:43;;;;;;;64.50;40.67;;;;;;;1.28;100.00;98354.75;4993039;28;20029;-89
2022/11/21 10:33:25;;;;;;;49.40;31.00;;;;;;;1.32;100.00;98356.34;4992834;28;20030;-89
2022/11/21 10:35:54;;;;;;;69.43;41.13;;;;;;;1.34;100.00;98349.44;5009158;28;20054;-89
2022/11/21 10:38:24;;;;;;;77.70;45.92;;;;;;;1.30;100.00;98356.38;4993015;28;20034;-87
2022/11/21 10:40:53;;;;;;;65.32;38.10;;;;;;;1.40;100.00;98355.22;5009478;28;20115;-88
2022/11/21 10:46:05;;;;;;;61.47;38.88;;;;;;;1.40;100.00;98362.94;5009663;28;20048;-88
2022/11/21 10:48:31;;;;;;;71.85;45.28;;;;;;;1.33;100.00;98345.19;5009530;28;20033;-88
2022/11/21 10:51:10;;;;;;;58.97;38.75;;;;;;;1.51;100.00;98357.44;5009360;28;20030;-88
2022/11/21 10:56:22;;;;;;;63.58;36.80;;;;;;;1.52;100.00;98351.44;5023225;28;20066;-89
2022/11/21 10:58:54;;;;;;;49.22;30.95;;;;;;;1.56;100.00;98355.59;5075196;28;20105;-89
2022/11/21 11:01:26;;;;;;;43.03;27.10;;;;;;;1.60;100.00;98358.88;5074229;28;20023;-89
2022/11/21 11:04:10;;;;;;;45.08;27.35;;;;;;;1.62;100.00;98357.97;5074204;28;20021;-89
2022/11/21 11:06:37;;;;;;;45.58;26.92;;;;;;;1.43;100.00;98324.34;5073930;28;20513;-88
2022/11/21 11:09:03;;;;;;;41.80;26.80;;;;;;;1.60;100.00;98346.94;5073719;28;20020;-88
2022/11/21 11:11:29;;;;;;;40.58;25.00;;;;;;;1.66;100.00;98348.44;5073739;28;20075;-88
2022/11/21 11:14:04;;;;;;;41.00;24.70;;;;;;;1.75;100.00;98360.97;5052206;28;20032;-88
2022/11/21 11:16:33;;;;;;;50.90;33.35;;;;;;;1.84;100.00;98375.25;5052544;28;20041;-88
2022/11/21 11:19:00;;;;;;;47.47;28.73;;;;;;;1.83;100.00;98371.84;5035722;28;20052;-88
2022/11/21 11:21:41;;;;;;;48.83;32.95;;;;;;;1.68;100.00;98362.06;5052381;28;20491;-88
2022/11/21 11:24:09;;;;;;;39.53;26.27;;;;;;;1.73;100.00;98388.44;5035547;28;20037;-88
2022/11/21 11:26:48;;;;;;;40.53;25.88;;;;;;;1.69;100.00;98380.00;5052326;28;20053;-88
2022/11/21 11:29:22;;;;;;;38.50;25.90;;;;;;;1.74;100.00;98393.53;5052087;28;20076;-88